Orbital elements of COSMOS 2251 DEB
| Launched | 15 June 1993 |
| Flight ended | – |
| Launch site | Plesetsk Missile and Space Complex, Russia |
| Owner | Commonwealth of Independent States (former USSR) |
| NORAD ID | 34756 |
| Date fetched |
Epoch osculation |
Inc. [°] |
Ecc. | RA asc node [hr] |
Arg Peri. [°] |
Mean anom [°] |
Mean motion [rev/day] |
Abs. mag |
| Date fetched |
Epoch osculation |
Inc. [°] |
Ecc. | RA asc node [hr] |
Arg Peri. [°] |
Mean anom [°] |
Mean motion [rev/day] |
Abs. mag |
| 2026 May 03 17:57 | 2026 Apr 30 01:13:29 | 74.0026 | 0.03430 | 15.7882 | 83.8151 | 280.1924 | 13.67644 | – |
| 2026 May 02 17:57 | 2026 Apr 30 01:13:29 | 74.0026 | 0.03430 | 15.7882 | 83.8151 | 280.1924 | 13.67644 | – |
| 2026 May 01 17:56 | 2026 Apr 30 01:13:29 | 74.0026 | 0.03430 | 15.7882 | 83.8151 | 280.1924 | 13.67644 | – |
| 2026 Apr 30 17:56 | 2026 Apr 30 01:13:29 | 74.0026 | 0.03430 | 15.7882 | 83.8151 | 280.1924 | 13.67644 | – |
| 2026 Apr 29 17:57 | 2026 Apr 24 08:17:42 | 74.0023 | 0.03435 | 16.4140 | 94.4157 | 280.1924 | 13.67644 | – |
| 2026 Apr 28 17:56 | 2026 Apr 24 08:17:42 | 74.0023 | 0.03435 | 16.4140 | 94.4157 | 280.1924 | 13.67644 | – |
| 2026 Apr 27 17:58 | 2026 Apr 24 08:17:42 | 74.0023 | 0.03435 | 16.4140 | 94.4157 | 280.1924 | 13.67644 | – |
| 2026 Apr 26 17:58 | 2026 Apr 24 08:17:42 | 74.0023 | 0.03435 | 16.4140 | 94.4157 | 280.1924 | 13.67644 | – |
| 2026 Apr 25 17:58 | 2026 Apr 24 08:17:42 | 74.0023 | 0.03435 | 16.4140 | 94.4157 | 280.1924 | 13.67644 | – |
| 2026 Apr 24 17:59 | 2026 Apr 24 08:17:42 | 74.0023 | 0.03435 | 16.4140 | 94.4157 | 280.1924 | 13.67644 | – |
| 2026 Apr 23 17:57 | 2026 Apr 19 03:39:08 | 74.0015 | 0.03439 | 16.9837 | 104.0512 | 280.1924 | 13.67644 | – |
| 2026 Apr 22 17:57 | 2026 Apr 19 03:39:08 | 74.0015 | 0.03439 | 16.9837 | 104.0512 | 280.1924 | 13.67644 | – |
| 2026 Apr 21 17:57 | 2026 Apr 19 03:39:08 | 74.0015 | 0.03439 | 16.9837 | 104.0512 | 280.1924 | 13.67644 | – |
| 2026 Apr 20 17:57 | 2026 Apr 19 03:39:08 | 74.0015 | 0.03439 | 16.9837 | 104.0512 | 280.1924 | 13.67644 | – |
| 2026 Apr 19 17:58 | 2026 Apr 19 03:39:08 | 74.0015 | 0.03439 | 16.9837 | 104.0512 | 280.1924 | 13.67644 | – |
| 2026 Apr 18 17:56 | 2026 Apr 12 20:40:30 | 74.0019 | 0.03443 | 17.6739 | 115.6966 | 280.1924 | 13.67644 | – |
| 2026 Apr 16 17:57 | 2026 Apr 12 20:40:30 | 74.0019 | 0.03443 | 17.6739 | 115.6966 | 280.1924 | 13.67644 | – |
| 2026 Apr 14 17:57 | 2026 Apr 12 20:40:30 | 74.0019 | 0.03443 | 17.6739 | 115.6966 | 280.1924 | 13.67644 | – |
| 2026 Apr 13 17:57 | 2026 Apr 12 20:40:30 | 74.0019 | 0.03443 | 17.6739 | 115.6966 | 280.1924 | 13.67644 | – |
| 2026 Apr 12 17:57 | 2026 Apr 07 21:17:46 | 74.0017 | 0.03445 | 18.2195 | 124.9103 | 280.1924 | 13.67644 | – |
| 2026 Apr 11 17:57 | 2026 Apr 07 21:17:46 | 74.0017 | 0.03445 | 18.2195 | 124.9103 | 280.1924 | 13.67644 | – |
| 2026 Apr 10 17:58 | 2026 Apr 07 21:17:46 | 74.0017 | 0.03445 | 18.2195 | 124.9103 | 280.1924 | 13.67644 | – |
| 2026 Apr 09 18:01 | 2026 Apr 07 21:17:46 | 74.0017 | 0.03445 | 18.2195 | 124.9103 | 280.1924 | 13.67644 | – |
| 2026 Apr 08 17:57 | 2026 Apr 07 21:17:46 | 74.0017 | 0.03445 | 18.2195 | 124.9103 | 280.1924 | 13.67644 | – |
| 2026 Apr 07 17:57 | 2026 Apr 02 06:06:53 | 74.0010 | 0.03446 | 18.8375 | 135.3401 | 280.1924 | 13.67644 | – |
| 2026 Apr 06 17:57 | 2026 Apr 02 06:06:53 | 74.0010 | 0.03446 | 18.8375 | 135.3401 | 280.1924 | 13.67644 | – |